Time;durP1;ratioP1;P1;durP2;ratioP2;P2;SDS_P1;SDS_P2;PMS_P1;PMS_P2;Temp;Humidity;BMP_temperature;BMP_pressure;BME280_temperature;BME280_humidity;BME280_pressure;Samples;Min_cycle;Max_cycle;Signal;HPM_P1;HPM_P2
2023/11/20 00:00:44;;;;;;;4.90;1.83;;;8.80;99.90;;;;;;4920151;29;20254;-72
2023/11/20 00:03:11;;;;;;;5.90;2.33;;;8.90;99.90;;;;;;4915357;29;20214;-71
2023/11/20 00:05:37;;;;;;;5.03;1.70;;;8.90;99.90;;;;;;4915019;29;20209;-71
2023/11/20 00:08:05;;;;;;;3.40;1.60;;;8.90;99.90;;;;;;4915355;29;20208;-71
2023/11/20 00:10:38;;;;;;;6.68;1.80;;;8.80;99.90;;;;;;4915448;29;20222;-71
2023/11/20 00:13:06;;;;;;;4.80;1.75;;;8.80;99.90;;;;;;4915592;29;20305;-71
2023/11/20 04:31:30;;;;;;;2.88;1.48;;;9.30;99.90;;;;;;5525104;23;20237;-92
2023/11/20 04:33:57;;;;;;;2.40;1.45;;;9.20;99.90;;;;;;4939289;29;20527;-91
2023/11/20 04:36:23;;;;;;;3.75;1.55;;;9.20;99.90;;;;;;4941022;29;20205;-91
2023/11/20 04:38:50;;;;;;;4.72;1.30;;;9.20;99.90;;;;;;4943189;29;20194;-92
2023/11/20 04:41:19;;;;;;;2.47;1.30;;;9.20;99.90;;;;;;4945781;29;20244;-91
2023/11/20 04:43:48;;;;;;;2.28;1.15;;;9.10;99.90;;;;;;4942614;29;20189;-94
2023/11/20 04:49:38;;;;;;;2.50;1.30;;;9.10;99.90;;;;;;4897333;29;20520;-93
2023/11/20 04:52:05;;;;;;;2.80;1.33;;;9.10;99.90;;;;;;4952157;23;20240;-70
2023/11/20 04:54:33;;;;;;;6.22;2.05;;;9.10;99.90;;;;;;4954642;28;20233;-70
2023/11/20 04:57:00;;;;;;;2.55;1.15;;;9.20;99.90;;;;;;4959286;28;20201;-70
2023/11/20 04:59:27;;;;;;;2.05;1.55;;;9.20;99.90;;;;;;4956043;28;20209;-70
2023/11/20 05:01:56;;;;;;;1.98;1.13;;;9.20;99.90;;;;;;4951858;28;20283;-70
2023/11/20 05:04:22;;;;;;;6.25;1.60;;;9.20;99.90;;;;;;4951557;28;20260;-70
2023/11/20 05:06:49;;;;;;;2.00;0.90;;;9.30;99.90;;;;;;4945740;28;20291;-70
2023/11/20 05:09:16;;;;;;;5.22;2.20;;;9.30;99.90;;;;;;4951954;29;20209;-69
2023/11/20 05:11:45;;;;;;;3.17;1.40;;;9.40;99.90;;;;;;4951921;28;20259;-69
2023/11/20 05:14:12;;;;;;;1.92;1.05;;;9.40;99.90;;;;;;4951178;29;21648;-71
2023/11/20 05:16:39;;;;;;;2.95;1.48;;;9.50;99.90;;;;;;4947149;29;20259;-69
2023/11/20 05:19:07;;;;;;;3.83;1.73;;;9.60;99.90;;;;;;4950746;28;20210;-70
2023/11/20 05:21:33;;;;;;;1.92;1.42;;;9.60;99.90;;;;;;4952114;28;20205;-69
2023/11/20 05:24:00;;;;;;;6.38;1.55;;;9.60;99.90;;;;;;4950507;28;20202;-69
2023/11/20 05:26:27;;;;;;;4.75;1.38;;;9.60;99.90;;;;;;4951738;28;20210;-70
2023/11/20 05:28:54;;;;;;;4.18;1.50;;;9.70;99.90;;;;;;4943826;28;20214;-70
2023/11/20 05:31:21;;;;;;;3.80;1.80;;;9.70;99.90;;;;;;4935357;29;20258;-70
2023/11/20 05:33:48;;;;;;;1.77;1.40;;;9.70;99.90;;;;;;4934569;29;20281;-70
2023/11/20 05:36:16;;;;;;;3.45;1.55;;;9.70;99.90;;;;;;4934181;29;20546;-70
2023/11/20 05:38:43;;;;;;;3.10;1.40;;;9.70;99.90;;;;;;4935409;29;20209;-71
2023/11/20 05:41:10;;;;;;;6.07;1.90;;;9.70;99.90;;;;;;4935014;29;20230;-71
2023/11/20 05:43:37;;;;;;;3.75;1.40;;;9.70;99.90;;;;;;4930932;29;20629;-70
2023/11/20 05:46:05;;;;;;;2.25;1.02;;;9.70;99.90;;;;;;4934701;29;20252;-71
2023/11/20 05:48:32;;;;;;;2.88;1.58;;;9.70;99.90;;;;;;4935357;29;20233;-71
2023/11/20 05:50:59;;;;;;;4.32;1.50;;;9.70;99.90;;;;;;4935097;29;20610;-70
2023/11/20 05:53:27;;;;;;;1.30;1.13;;;9.70;99.90;;;;;;4935104;29;20229;-70
2023/11/20 05:55:54;;;;;;;3.55;1.60;;;9.70;99.90;;;;;;4934557;29;20205;-70
2023/11/20 05:58:21;;;;;;;3.17;1.23;;;9.70;99.90;;;;;;4935164;29;20214;-70
2023/11/20 06:00:47;;;;;;;2.08;1.83;;;9.70;99.90;;;;;;4935157;29;20607;-70
2023/11/20 06:03:14;;;;;;;5.85;2.38;;;9.70;99.90;;;;;;4934947;29;20201;-70
2023/11/20 06:05:41;;;;;;;1.67;1.33;;;9.70;99.90;;;;;;4934684;29;20205;-70
2023/11/20 06:08:08;;;;;;;3.90;1.70;;;9.70;99.90;;;;;;4934694;29;20215;-70
2023/11/20 06:10:36;;;;;;;3.67;1.73;;;9.70;99.90;;;;;;4936120;29;20722;-70
2023/11/20 06:13:03;;;;;;;5.78;1.35;;;9.70;99.90;;;;;;4935120;29;20206;-70
2023/11/20 06:15:29;;;;;;;2.10;1.40;;;9.70;99.90;;;;;;4934312;29;20214;-69
2023/11/20 06:17:57;;;;;;;3.17;1.20;;;9.70;99.90;;;;;;4934153;29;20213;-69
2023/11/20 06:20:23;;;;;;;5.60;2.33;;;9.70;99.90;;;;;;4934743;29;20236;-70
2023/11/20 06:22:50;;;;;;;2.20;1.23;;;9.80;99.90;;;;;;4934717;29;20214;-71
2023/11/20 06:25:17;;;;;;;4.13;1.50;;;9.70;99.90;;;;;;4934074;29;20224;-70
2023/11/20 06:27:45;;;;;;;1.85;1.20;;;9.70;99.90;;;;;;4934770;29;20612;-70
2023/11/20 06:30:12;;;;;;;5.05;1.58;;;9.70;99.90;;;;;;4934299;29;20214;-70
2023/11/20 06:32:39;;;;;;;4.95;1.50;;;9.70;99.90;;;;;;4934615;29;20209;-70
2023/11/20 06:35:06;;;;;;;2.35;1.30;;;9.70;99.90;;;;;;4933444;29;20587;-70
2023/11/20 06:37:32;;;;;;;4.07;1.63;;;9.70;99.90;;;;;;4934400;29;20217;-72
2023/11/20 06:39:59;;;;;;;2.80;1.50;;;9.60;99.90;;;;;;4934170;29;20213;-71
2023/11/20 06:42:26;;;;;;;4.75;1.75;;;9.70;99.90;;;;;;4934458;29;20234;-71
2023/11/20 06:44:54;;;;;;;10.70;2.70;;;9.70;99.90;;;;;;4933709;29;20205;-71
2023/11/20 06:47:22;;;;;;;2.75;1.15;;;9.70;99.90;;;;;;4934172;29;20217;-71
2023/11/20 06:49:48;;;;;;;3.67;1.15;;;9.70;99.90;;;;;;4934333;29;20214;-71
2023/11/20 06:52:16;;;;;;;2.33;1.30;;;9.80;99.90;;;;;;4933775;29;20233;-71
2023/11/20 06:54:43;;;;;;;4.53;1.80;;;9.80;99.90;;;;;;4933923;29;20710;-70
2023/11/20 06:57:11;;;;;;;3.40;1.75;;;9.80;99.90;;;;;;4933598;29;20218;-70
2023/11/20 06:59:38;;;;;;;1.35;1.25;;;9.90;99.90;;;;;;4929052;29;20209;-70
2023/11/20 07:02:06;;;;;;;1.88;0.90;;;9.90;99.90;;;;;;4933788;29;20233;-70
2023/11/20 07:04:37;;;;;;;3.97;1.30;;;9.90;99.90;;;;;;4933811;29;20208;-70
2023/11/20 07:07:04;;;;;;;3.72;1.17;;;9.90;99.90;;;;;;4933483;29;20689;-70
2023/11/20 07:09:31;;;;;;;4.13;1.10;;;9.90;99.90;;;;;;4934011;29;20230;-70
2023/11/20 07:11:58;;;;;;;2.55;1.15;;;9.90;99.90;;;;;;4933781;29;20618;-70
2023/11/20 07:14:24;;;;;;;2.72;1.77;;;9.90;99.90;;;;;;4933724;29;20225;-70
2023/11/20 07:16:51;;;;;;;5.32;1.42;;;9.90;99.90;;;;;;4933632;29;20270;-69
2023/11/20 07:19:19;;;;;;;2.45;1.67;;;9.90;99.90;;;;;;4932876;29;20610;-70
2023/11/20 07:21:46;;;;;;;7.00;1.42;;;9.90;99.90;;;;;;4933433;29;20229;-71
2023/11/20 07:24:13;;;;;;;3.63;1.35;;;10.00;99.90;;;;;;4932918;29;20294;-71
2023/11/20 07:26:40;;;;;;;3.65;1.23;;;10.00;99.90;;;;;;4933585;29;20603;-71
2023/11/20 07:29:07;;;;;;;12.02;2.45;;;10.00;99.90;;;;;;4933534;29;20214;-72
2023/11/20 07:31:33;;;;;;;1.17;1.00;;;10.10;99.90;;;;;;4933471;29;20890;-71
2023/11/20 07:34:00;;;;;;;1.92;1.17;;;10.10;99.90;;;;;;4933403;29;20222;-70
2023/11/20 07:36:28;;;;;;;3.40;1.13;;;10.20;99.90;;;;;;4933364;29;20215;-72
2023/11/20 07:38:55;;;;;;;2.85;1.40;;;10.20;99.90;;;;;;4933967;29;20213;-72
2023/11/20 07:41:21;;;;;;;2.35;1.33;;;10.20;99.90;;;;;;4933188;29;20230;-71
2023/11/20 07:43:48;;;;;;;2.28;1.02;;;10.30;99.90;;;;;;4933821;29;20212;-72
2023/11/20 07:46:15;;;;;;;8.20;2.17;;;10.30;99.90;;;;;;4933277;29;20612;-71
2023/11/20 07:48:42;;;;;;;3.08;1.60;;;10.40;99.90;;;;;;4937567;29;20296;-71
2023/11/20 07:51:08;;;;;;;3.47;1.70;;;10.40;99.90;;;;;;4937127;29;20232;-71
2023/11/20 07:53:36;;;;;;;4.05;1.25;;;10.50;99.90;;;;;;4937178;29;20226;-70
2023/11/20 07:56:03;;;;;;;3.65;1.38;;;10.50;99.90;;;;;;4936730;29;20217;-71
2023/11/20 07:58:30;;;;;;;5.38;2.67;;;10.50;99.90;;;;;;4937212;29;20211;-71
2023/11/20 08:00:57;;;;;;;3.28;1.83;;;10.50;99.90;;;;;;4937425;29;20379;-71
2023/11/20 08:03:24;;;;;;;2.25;1.27;;;10.50;99.90;;;;;;4935438;29;20222;-72
2023/11/20 08:05:50;;;;;;;2.10;1.10;;;10.50;99.90;;;;;;4936878;29;20597;-71
2023/11/20 08:08:17;;;;;;;4.35;1.30;;;10.50;99.90;;;;;;4936786;29;20213;-71
2023/11/20 08:10:46;;;;;;;2.03;1.02;;;10.50;99.90;;;;;;4937259;29;20660;-70
2023/11/20 08:13:12;;;;;;;1.83;1.35;;;10.50;99.90;;;;;;4936846;29;20249;-70
2023/11/20 08:15:39;;;;;;;3.25;1.35;;;10.50;99.90;;;;;;4936761;29;20222;-71
2023/11/20 08:18:06;;;;;;;10.00;1.63;;;10.50;99.90;;;;;;4936790;29;20290;-71
2023/11/20 08:20:33;;;;;;;2.88;1.23;;;10.50;99.90;;;;;;4936891;29;20223;-71
2023/11/20 08:22:59;;;;;;;1.48;1.00;;;10.60;99.90;;;;;;4937090;29;20213;-70
2023/11/20 08:25:26;;;;;;;3.45;1.45;;;10.60;99.90;;;;;;4934927;29;20210;-71
2023/11/20 08:27:54;;;;;;;2.15;1.40;;;10.70;99.90;;;;;;4936898;29;20222;-71
2023/11/20 08:30:21;;;;;;;3.50;1.50;;;10.70;99.90;;;;;;4936366;29;20224;-71
2023/11/20 08:32:48;;;;;;;2.13;1.20;;;10.70;99.90;;;;;;4936922;29;20212;-71
2023/11/20 08:35:14;;;;;;;5.43;1.55;;;10.60;99.90;;;;;;4935981;29;20221;-71
2023/11/20 08:37:42;;;;;;;4.10;1.40;;;10.50;99.90;;;;;;4936746;29;20243;-71
2023/11/20 08:40:14;;;;;;;3.55;1.75;;;10.50;99.90;;;;;;4936555;29;20207;-71
2023/11/20 08:42:40;;;;;;;2.35;1.00;;;10.50;99.90;;;;;;4930540;29;20207;-71
2023/11/20 08:45:10;;;;;;;2.85;1.40;;;10.40;99.90;;;;;;4935917;29;20582;-71
2023/11/20 08:47:39;;;;;;;3.20;1.30;;;10.40;99.90;;;;;;4929767;29;20211;-70
2023/11/20 08:50:08;;;;;;;2.50;1.13;;;10.40;99.90;;;;;;4936399;29;20214;-71
2023/11/20 08:52:35;;;;;;;1.60;0.95;;;10.40;99.90;;;;;;4936172;29;20504;-70
2023/11/20 08:55:02;;;;;;;1.20;1.05;;;10.40;99.90;;;;;;4935946;29;20239;-70
2023/11/20 08:57:28;;;;;;;2.95;1.30;;;10.40;99.90;;;;;;4934994;29;20230;-70
2023/11/20 08:59:55;;;;;;;4.05;2.22;;;10.40;99.90;;;;;;4936463;29;20310;-70
2023/11/20 09:02:24;;;;;;;4.60;1.63;;;10.40;99.90;;;;;;4935881;29;20237;-70
2023/11/20 09:04:50;;;;;;;2.17;1.80;;;10.40;99.90;;;;;;4935775;29;20204;-71
2023/11/20 09:07:17;;;;;;;2.40;1.55;;;10.40;99.90;;;;;;4935840;29;20207;-70
2023/11/20 09:09:45;;;;;;;1.83;1.38;;;10.40;99.90;;;;;;4936284;29;20292;-71
2023/11/20 09:12:12;;;;;;;2.33;1.25;;;10.40;99.90;;;;;;4936021;29;20226;-71
2023/11/20 09:14:38;;;;;;;4.68;1.25;;;10.40;99.90;;;;;;4935735;29;20229;-70
2023/11/20 09:17:05;;;;;;;4.70;2.00;;;10.40;99.90;;;;;;4935812;29;20218;-71
2023/11/20 09:19:34;;;;;;;2.08;1.50;;;10.50;99.90;;;;;;4935664;29;20218;-71
2023/11/20 09:22:00;;;;;;;3.55;1.95;;;10.50;99.90;;;;;;4935829;29;20230;-71
2023/11/20 09:24:27;;;;;;;1.73;1.20;;;10.50;99.90;;;;;;4935194;29;20233;-71
2023/11/20 09:26:54;;;;;;;5.05;1.73;;;10.50;99.90;;;;;;4935416;29;20231;-70
2023/11/20 09:29:21;;;;;;;2.72;1.50;;;10.50;99.90;;;;;;4935451;29;20227;-70
2023/11/20 09:31:47;;;;;;;2.97;1.20;;;10.50;99.90;;;;;;4935806;29;20584;-71
2023/11/20 09:34:15;;;;;;;3.67;1.40;;;10.60;99.90;;;;;;4935173;29;20233;-71
2023/11/20 09:36:43;;;;;;;2.28;1.50;;;10.60;99.90;;;;;;4935466;29;20290;-71
2023/11/20 09:39:13;;;;;;;2.03;1.30;;;10.70;99.90;;;;;;4935394;29;20208;-70
2023/11/20 09:41:42;;;;;;;1.50;1.30;;;10.80;99.90;;;;;;4928720;29;20258;-71
2023/11/20 09:44:10;;;;;;;2.78;1.50;;;11.00;99.90;;;;;;4935569;29;20202;-70
2023/11/20 09:46:41;;;;;;;2.17;0.98;;;11.30;99.90;;;;;;4927886;29;20684;-72
2023/11/20 09:49:09;;;;;;;4.97;1.95;;;11.60;99.90;;;;;;4935470;29;20208;-71
2023/11/20 09:51:37;;;;;;;12.00;1.92;;;12.60;99.90;;;;;;4934994;29;20230;-71
2023/11/20 09:54:08;;;;;;;1.95;1.60;;;13.30;99.90;;;;;;4935163;29;20267;-71
2023/11/20 09:56:35;;;;;;;3.67;1.38;;;13.60;99.90;;;;;;4934925;29;20574;-71
2023/11/20 09:59:03;;;;;;;1.55;1.13;;;13.40;99.90;;;;;;4935213;29;20203;-71
2023/11/20 10:01:30;;;;;;;3.22;1.63;;;12.90;99.90;;;;;;4934721;29;20229;-71
2023/11/20 10:03:58;;;;;;;2.03;1.25;;;12.20;99.90;;;;;;4935145;29;20208;-71
2023/11/20 10:06:27;;;;;;;4.93;1.52;;;11.90;99.90;;;;;;4934211;29;20681;-71
2023/11/20 10:08:56;;;;;;;4.85;1.33;;;12.00;99.90;;;;;;4934557;29;20219;-70
2023/11/20 10:11:26;;;;;;;3.22;1.50;;;12.10;99.90;;;;;;4934492;29;20235;-71
2023/11/20 10:13:53;;;;;;;1.50;1.20;;;12.40;99.90;;;;;;4935007;29;20217;-70
2023/11/20 10:16:22;;;;;;;3.90;1.20;;;12.90;99.90;;;;;;4933824;29;20235;-71
2023/11/20 10:18:49;;;;;;;2.65;1.38;;;12.80;99.90;;;;;;4934913;29;20232;-71
2023/11/20 10:21:19;;;;;;;4.25;1.45;;;12.90;99.90;;;;;;4934649;29;20237;-71
2023/11/20 10:23:46;;;;;;;1.93;1.17;;;13.60;99.90;;;;;;4934767;29;20298;-71
2023/11/20 10:26:13;;;;;;;2.43;1.07;;;14.40;99.90;;;;;;4934026;29;20540;-70
2023/11/20 10:28:41;;;;;;;1.60;1.00;;;14.60;99.90;;;;;;4934776;29;20500;-71
2023/11/20 10:31:09;;;;;;;1.47;1.10;;;14.40;99.90;;;;;;4934880;29;20499;-70
2023/11/20 10:33:35;;;;;;;2.30;1.30;;;13.80;99.90;;;;;;4934473;29;20469;-71
2023/11/20 10:36:12;;;;;;;2.17;1.15;;;13.30;99.90;;;;;;4933987;29;20481;-71
2023/11/20 10:38:39;;;;;;;2.13;1.23;;;13.10;99.90;;;;;;4926876;29;20564;-71
2023/11/20 10:41:10;;;;;;;2.13;1.00;;;13.30;99.90;;;;;;4934472;29;20868;-71
2023/11/20 10:43:37;;;;;;;2.00;1.30;;;14.00;99.90;;;;;;4933950;29;20555;-70
2023/11/20 10:46:06;;;;;;;2.37;1.20;;;13.90;99.90;;;;;;4933945;29;20465;-70
2023/11/20 10:48:34;;;;;;;2.07;1.10;;;13.80;99.90;;;;;;4933818;29;20860;-70
2023/11/20 10:51:05;;;;;;;1.43;1.20;;;15.30;99.90;;;;;;4934421;29;20479;-71
2023/11/20 10:53:36;;;;;;;1.20;1.00;;;18.00;99.90;;;;;;4933834;29;20856;-70
2023/11/20 10:56:05;;;;;;;1.93;1.03;;;18.70;99.90;;;;;;4933806;29;20492;-71
2023/11/20 10:58:32;;;;;;;1.80;1.00;;;19.30;99.90;;;;;;4933468;29;20472;-70
2023/11/20 11:00:59;;;;;;;3.00;1.30;;;19.90;99.90;;;;;;4934185;29;20485;-71
2023/11/20 11:03:30;;;;;;;2.30;1.50;;;21.00;99.90;;;;;;4933691;29;20493;-70
2023/11/20 11:06:00;;;;;;;1.20;0.90;;;21.70;99.90;;;;;;4933822;29;20551;-70
2023/11/20 11:08:29;;;;;;;1.30;1.00;;;22.10;99.60;;;;;;4933835;29;20469;-71
2023/11/20 11:10:58;;;;;;;1.20;0.90;;;22.30;99.00;;;;;;4933953;29;20495;-70
2023/11/20 11:13:31;;;;;;;1.63;0.93;;;21.50;99.10;;;;;;4933615;29;20469;-71
2023/11/20 11:16:00;;;;;;;4.03;1.10;;;20.20;99.90;;;;;;4933428;29;20867;-70
2023/11/20 11:18:31;;;;;;;1.90;1.07;;;18.70;99.90;;;;;;4933639;29;20892;-71
2023/11/20 11:20:59;;;;;;;1.43;1.03;;;16.60;99.90;;;;;;4933079;29;20917;-71
2023/11/20 11:23:30;;;;;;;2.03;1.50;;;15.40;99.90;;;;;;4933473;29;20473;-70
2023/11/20 11:26:10;;;;;;;1.30;0.90;;;14.50;99.90;;;;;;4933530;29;20465;-71
2023/11/20 11:28:39;;;;;;;2.00;1.10;;;13.80;99.90;;;;;;4932350;29;20466;-70
2023/11/20 11:31:09;;;;;;;1.03;0.93;;;13.30;99.90;;;;;;4933980;29;20960;-69
2023/11/20 11:34:15;;;;;;;1.87;0.97;;;12.70;99.90;;;;;;4933052;29;20460;-70
2023/11/20 11:36:51;;;;;;;1.00;0.80;;;12.30;99.90;;;;;;4932942;29;20576;-71
2023/11/20 11:39:30;;;;;;;1.50;1.30;;;12.00;99.90;;;;;;4933777;29;20479;-70
2023/11/20 11:42:07;;;;;;;1.75;0.93;;;11.70;99.90;;;;;;4928593;29;21069;-70
2023/11/20 11:44:44;;;;;;;1.05;0.82;;;11.40;99.90;;;;;;4933567;29;20211;-70
2023/11/20 11:47:15;;;;;;;1.20;1.00;;;11.20;99.90;;;;;;4933895;29;20816;-70
2023/11/20 11:49:49;;;;;;;0.80;0.68;;;11.10;99.90;;;;;;4932873;29;20268;-69
2023/11/20 11:52:21;;;;;;;1.00;0.85;;;11.10;99.90;;;;;;4933413;29;20244;-68
2023/11/20 11:55:21;;;;;;;0.80;0.70;;;11.10;99.90;;;;;;4927150;29;20215;-69
2023/11/20 11:57:53;;;;;;;1.23;0.80;;;11.70;99.90;;;;;;4927336;29;20236;-71
2023/11/20 12:00:22;;;;;;;1.10;0.90;;;12.90;99.90;;;;;;4933811;29;20284;-70
2023/11/20 12:02:57;;;;;;;0.80;0.70;;;14.20;99.90;;;;;;4927521;29;20649;-68
2023/11/20 12:05:26;;;;;;;3.03;1.17;;;14.90;99.90;;;;;;4933084;29;20457;-70
2023/11/20 12:07:53;;;;;;;1.60;0.93;;;15.30;99.90;;;;;;4933774;29;20980;-68
2023/11/20 12:10:40;;;;;;;1.50;0.90;;;15.30;99.90;;;;;;4933704;29;20473;-68
2023/11/20 12:13:09;;;;;;;6.03;1.20;;;15.10;99.90;;;;;;4933866;29;20520;-68
2023/11/20 12:15:38;;;;;;;2.13;1.27;;;14.60;99.90;;;;;;4932679;29;20610;-69
2023/11/20 12:18:08;;;;;;;6.10;1.30;;;14.20;99.90;;;;;;4933591;29;20846;-70
2023/11/20 12:20:38;;;;;;;12.23;1.63;;;13.90;99.90;;;;;;4933145;29;20544;-69
2023/11/20 12:23:08;;;;;;;1.80;1.10;;;13.70;99.90;;;;;;4933650;29;20465;-68
2023/11/20 12:25:39;;;;;;;1.10;1.00;;;13.40;99.90;;;;;;4932487;29;20685;-68
2023/11/20 12:28:08;;;;;;;2.53;1.00;;;13.20;99.90;;;;;;4933188;29;20201;-68
2023/11/20 12:30:36;;;;;;;1.93;1.20;;;13.00;99.90;;;;;;4933298;29;20568;-70
2023/11/20 12:33:04;;;;;;;7.00;1.40;;;13.40;99.90;;;;;;4934780;29;20473;-68
2023/11/20 12:35:31;;;;;;;1.70;1.03;;;13.90;99.90;;;;;;4935826;29;20497;-70
2023/11/20 12:38:00;;;;;;;1.60;1.10;;;14.30;99.90;;;;;;4936779;29;20594;-70
2023/11/20 12:40:26;;;;;;;2.30;1.67;;;14.60;99.90;;;;;;4936259;29;20492;-70
2023/11/20 12:43:02;;;;;;;1.10;0.90;;;14.90;99.90;;;;;;4936727;29;20464;-70
2023/11/20 12:45:30;;;;;;;2.43;1.13;;;15.20;99.90;;;;;;4933753;29;20460;-71
2023/11/20 12:47:57;;;;;;;3.33;1.03;;;15.60;99.90;;;;;;4935656;29;20477;-70
2023/11/20 12:50:26;;;;;;;2.43;1.10;;;15.60;99.90;;;;;;4936814;29;20476;-71
2023/11/20 12:52:54;;;;;;;1.53;1.10;;;15.60;99.90;;;;;;4930833;29;20483;-70
2023/11/20 12:55:24;;;;;;;0.90;0.80;;;15.30;99.90;;;;;;4936345;29;20496;-72
2023/11/20 12:57:54;;;;;;;0.80;0.77;;;15.20;99.90;;;;;;4936733;29;20474;-69
2023/11/20 13:00:23;;;;;;;1.67;1.07;;;15.10;99.90;;;;;;4936797;29;20501;-69
2023/11/20 13:02:55;;;;;;;1.10;0.80;;;15.10;99.90;;;;;;4936480;29;20475;-68
2023/11/20 13:05:27;;;;;;;1.33;1.03;;;14.80;99.90;;;;;;4936220;29;20480;-68
2023/11/20 13:07:58;;;;;;;2.90;1.00;;;14.60;99.90;;;;;;4931003;29;20477;-71
2023/11/20 13:10:28;;;;;;;2.13;0.80;;;14.40;99.90;;;;;;4936791;29;20851;-68
2023/11/20 13:13:04;;;;;;;1.67;0.90;;;14.30;99.90;;;;;;4936608;29;20501;-69
2023/11/20 13:15:34;;;;;;;1.13;0.90;;;13.90;99.90;;;;;;4936060;29;20493;-70
2023/11/20 13:18:02;;;;;;;2.13;0.87;;;13.30;99.90;;;;;;4935973;29;20465;-70
2023/11/20 13:20:44;;;;;;;6.17;1.30;;;13.30;99.90;;;;;;4936206;29;20461;-71
2023/11/20 13:23:24;;;;;;;1.30;0.90;;;13.60;99.90;;;;;;4936281;29;20469;-71
2023/11/20 13:25:55;;;;;;;3.00;1.30;;;14.00;99.90;;;;;;4934664;29;21044;-70
2023/11/20 13:28:27;;;;;;;1.20;1.00;;;14.20;99.90;;;;;;4936103;29;20465;-71
2023/11/20 13:31:03;;;;;;;1.03;0.80;;;14.40;99.90;;;;;;4935465;29;20489;-70
2023/11/20 13:33:31;;;;;;;3.87;1.03;;;14.80;99.90;;;;;;4936366;29;20834;-71
2023/11/20 13:36:00;;;;;;;1.23;0.90;;;15.00;99.90;;;;;;4935407;29;20572;-70
2023/11/20 13:38:29;;;;;;;1.83;1.23;;;14.60;99.90;;;;;;4935471;29;20545;-70
2023/11/20 13:40:58;;;;;;;1.37;0.80;;;13.90;99.90;;;;;;4935376;29;20493;-70
2023/11/20 13:43:27;;;;;;;2.60;1.02;;;13.30;99.90;;;;;;4935260;29;20524;-71
2023/11/20 13:45:56;;;;;;;1.10;1.00;;;12.80;99.90;;;;;;4934998;29;20205;-71
2023/11/20 13:48:25;;;;;;;1.67;0.95;;;12.50;99.90;;;;;;4935907;29;20468;-71
2023/11/20 13:50:52;;;;;;;2.03;0.95;;;12.30;99.90;;;;;;4934916;29;20243;-70
2023/11/20 13:53:22;;;;;;;4.30;1.10;;;12.10;99.90;;;;;;4935065;29;20300;-70
2023/11/20 13:55:50;;;;;;;1.98;1.00;;;11.90;99.90;;;;;;4934007;29;20601;-69
2023/11/20 13:58:22;;;;;;;1.60;0.85;;;11.90;99.90;;;;;;4935027;29;20216;-70
2023/11/20 14:00:49;;;;;;;2.08;0.70;;;11.80;99.90;;;;;;4934645;29;20227;-69
2023/11/20 14:03:19;;;;;;;2.25;0.95;;;11.70;99.90;;;;;;4934913;29;20682;-69
2023/11/20 14:05:47;;;;;;;1.35;1.25;;;11.60;99.90;;;;;;4934391;29;20234;-70
2023/11/20 14:08:15;;;;;;;1.30;1.10;;;11.60;99.90;;;;;;4931913;29;20213;-69
2023/11/20 14:10:44;;;;;;;1.98;0.90;;;11.50;99.90;;;;;;4934711;29;20597;-69
2023/11/20 14:13:11;;;;;;;1.10;0.82;;;11.50;99.90;;;;;;4935551;29;20208;-71
2023/11/20 14:15:39;;;;;;;1.55;0.82;;;11.50;99.90;;;;;;4930779;29;20228;-71
2023/11/20 14:18:08;;;;;;;1.27;1.15;;;11.50;99.90;;;;;;4934278;29;20208;-71
2023/11/20 14:20:36;;;;;;;1.33;1.10;;;11.50;99.90;;;;;;4934756;29;20240;-70
2023/11/20 14:23:03;;;;;;;3.85;1.33;;;11.40;99.90;;;;;;4930060;29;20208;-70
2023/11/20 14:25:32;;;;;;;2.38;1.13;;;11.30;99.90;;;;;;4932944;29;20217;-70
2023/11/20 14:28:00;;;;;;;2.85;1.20;;;11.30;99.90;;;;;;4933605;29;20295;-70
2023/11/20 14:30:27;;;;;;;1.65;1.00;;;11.40;99.90;;;;;;4934933;29;20215;-70
2023/11/20 14:32:57;;;;;;;3.20;1.00;;;11.50;99.90;;;;;;4935173;29;20240;-70
2023/11/20 14:35:24;;;;;;;2.28;1.10;;;11.80;99.90;;;;;;4934814;29;20241;-71
2023/11/20 14:37:52;;;;;;;1.80;1.40;;;11.80;99.90;;;;;;4934860;29;20302;-71
2023/11/20 14:40:20;;;;;;;1.75;1.20;;;11.60;99.90;;;;;;4935158;29;20216;-71
2023/11/20 14:42:48;;;;;;;1.50;1.00;;;11.40;99.90;;;;;;4934602;29;20410;-71
2023/11/20 14:45:17;;;;;;;1.17;1.00;;;11.20;99.90;;;;;;4933824;29;20690;-71
2023/11/20 14:47:45;;;;;;;1.58;1.00;;;11.10;99.90;;;;;;4934084;29;20302;-70
2023/11/20 14:50:15;;;;;;;1.13;0.90;;;11.00;99.90;;;;;;4934496;29;20575;-71
2023/11/20 14:52:44;;;;;;;1.38;1.00;;;10.80;99.90;;;;;;4931125;29;20759;-70
2023/11/20 14:55:11;;;;;;;8.52;1.67;;;10.80;99.90;;;;;;4933402;29;20219;-70
2023/11/20 14:57:41;;;;;;;1.70;1.40;;;10.60;99.90;;;;;;4930695;29;20776;-71
2023/11/20 15:00:14;;;;;;;2.25;1.02;;;10.50;99.90;;;;;;4930574;29;20266;-70
2023/11/20 15:02:42;;;;;;;2.75;1.00;;;10.40;99.90;;;;;;4930759;29;20207;-69
2023/11/20 15:05:09;;;;;;;1.83;0.85;;;10.30;99.90;;;;;;4933699;29;20241;-70
2023/11/20 15:07:37;;;;;;;1.20;0.80;;;10.20;99.90;;;;;;4933853;29;20204;-70
2023/11/20 15:10:05;;;;;;;1.00;0.70;;;10.10;99.90;;;;;;4933803;29;20218;-70
2023/11/20 15:12:32;;;;;;;1.02;0.75;;;10.00;99.90;;;;;;4931262;29;20297;-71
2023/11/20 15:14:58;;;;;;;3.17;1.00;;;10.00;99.90;;;;;;4932444;29;20207;-71
2023/11/20 15:17:26;;;;;;;1.90;0.85;;;9.90;99.90;;;;;;4933893;29;20227;-68
2023/11/20 15:19:53;;;;;;;3.70;1.30;;;9.90;99.90;;;;;;4933511;29;20213;-69
2023/11/20 15:22:20;;;;;;;5.75;1.38;;;9.90;99.90;;;;;;4933818;29;20231;-68
2023/11/20 15:24:49;;;;;;;1.17;0.75;;;9.90;99.90;;;;;;4931638;29;20219;-69
2023/11/20 15:27:16;;;;;;;7.13;1.27;;;9.80;99.90;;;;;;4933031;29;20730;-69
2023/11/20 15:29:43;;;;;;;1.00;0.80;;;9.80;99.90;;;;;;4933414;29;20309;-69
2023/11/20 15:32:11;;;;;;;2.75;1.10;;;9.70;99.90;;;;;;4931937;29;20258;-71
2023/11/20 15:34:38;;;;;;;1.92;0.80;;;9.70;99.90;;;;;;4929492;29;20217;-69
2023/11/20 15:37:06;;;;;;;1.30;1.00;;;9.60;99.90;;;;;;4933174;29;20230;-71
2023/11/20 15:39:33;;;;;;;1.90;1.23;;;9.50;99.90;;;;;;4933300;29;20222;-71
2023/11/20 15:42:03;;;;;;;1.00;0.80;;;9.40;99.90;;;;;;4932984;29;20711;-71
2023/11/20 15:44:30;;;;;;;1.23;0.80;;;9.30;99.90;;;;;;4933471;29;20303;-71
2023/11/20 15:46:57;;;;;;;1.52;1.10;;;9.30;99.90;;;;;;4932923;29;20210;-71
2023/11/20 15:49:23;;;;;;;1.10;0.85;;;9.20;99.90;;;;;;4933163;29;20220;-71
2023/11/20 15:51:53;;;;;;;1.55;1.00;;;9.10;99.90;;;;;;4932610;29;20237;-70
2023/11/20 15:54:20;;;;;;;1.38;1.00;;;9.00;99.90;;;;;;4933332;29;20209;-69
2023/11/20 15:56:52;;;;;;;1.25;0.90;;;9.00;99.90;;;;;;4932547;29;20229;-71
2023/11/20 15:59:21;;;;;;;1.77;1.10;;;8.90;99.90;;;;;;4933462;29;20235;-70
2023/11/20 16:01:56;;;;;;;2.55;1.42;;;8.90;99.90;;;;;;4933058;29;20267;-69
2023/11/20 16:04:24;;;;;;;1.33;0.80;;;8.90;99.90;;;;;;4932631;29;20296;-71
2023/11/20 16:06:53;;;;;;;4.35;1.10;;;8.80;99.90;;;;;;4931301;29;20206;-70
2023/11/20 16:09:20;;;;;;;1.25;0.93;;;8.80;99.90;;;;;;4936927;29;20242;-69
2023/11/20 16:11:47;;;;;;;2.25;1.10;;;8.80;99.90;;;;;;4936555;29;20315;-69
2023/11/20 16:14:14;;;;;;;3.28;1.00;;;8.80;99.90;;;;;;4937008;29;20232;-70
2023/11/20 16:16:45;;;;;;;0.80;0.70;;;8.90;99.90;;;;;;4932398;29;20315;-69
2023/11/20 16:19:12;;;;;;;2.15;1.00;;;8.90;99.90;;;;;;4936786;29;20243;-70
2023/11/20 16:21:39;;;;;;;1.02;0.75;;;9.00;99.90;;;;;;4932324;29;20230;-70
2023/11/20 16:24:06;;;;;;;0.80;0.70;;;9.00;99.90;;;;;;4935886;29;20709;-69
2023/11/20 16:26:33;;;;;;;0.90;0.80;;;9.00;99.90;;;;;;4933775;29;20224;-69
2023/11/20 16:28:59;;;;;;;1.70;1.60;;;8.90;99.90;;;;;;4936014;29;20214;-70
2023/11/20 16:31:26;;;;;;;2.33;1.83;;;8.90;99.90;;;;;;4936457;29;20229;-70
2023/11/20 16:33:54;;;;;;;1.85;1.60;;;8.90;99.90;;;;;;4935965;29;20213;-70
2023/11/20 16:36:22;;;;;;;1.73;1.25;;;8.90;99.90;;;;;;4934924;29;20232;-70
2023/11/20 16:38:49;;;;;;;1.33;0.95;;;8.80;99.90;;;;;;4933966;29;20754;-69
2023/11/20 16:41:17;;;;;;;1.90;0.77;;;8.70;99.90;;;;;;4935833;29;20245;-69
2023/11/20 16:43:44;;;;;;;1.05;0.80;;;8.60;99.90;;;;;;4936504;29;20215;-69
2023/11/20 16:46:11;;;;;;;1.00;0.90;;;8.50;99.90;;;;;;4935466;29;20206;-69
2023/11/20 16:48:37;;;;;;;0.82;0.70;;;8.40;99.90;;;;;;4931723;29;20233;-70
2023/11/20 16:51:06;;;;;;;0.95;0.85;;;8.30;99.90;;;;;;4936124;29;20229;-70
2023/11/20 16:53:35;;;;;;;0.90;0.80;;;8.30;99.90;;;;;;4936250;29;20224;-70
2023/11/20 16:56:02;;;;;;;0.90;0.80;;;8.20;99.90;;;;;;4935639;29;20398;-69
2023/11/20 16:58:28;;;;;;;1.45;0.90;;;8.20;99.90;;;;;;4935874;29;20230;-69
2023/11/20 17:00:55;;;;;;;8.07;1.40;;;8.10;99.90;;;;;;4935842;29;20237;-69
2023/11/20 17:03:23;;;;;;;2.72;2.17;;;8.10;99.90;;;;;;4936411;29;20214;-70
2023/11/20 17:05:50;;;;;;;3.80;3.40;;;8.00;99.90;;;;;;4935586;29;20209;-71
2023/11/20 17:08:18;;;;;;;3.13;2.83;;;8.00;99.90;;;;;;4935889;29;20581;-70
2023/11/20 17:10:45;;;;;;;2.10;1.90;;;8.00;99.90;;;;;;4936024;29;20236;-69
2023/11/20 17:13:12;;;;;;;2.13;1.40;;;8.00;99.90;;;;;;4933810;29;20225;-69
2023/11/20 17:15:38;;;;;;;1.92;1.10;;;8.00;99.90;;;;;;4935641;29;20228;-70